Time,TemperatureF,DewpointF,PressureIn,WindDirection,WindDirectionDegrees,WindSpeedMPH,WindSpeedGustMPH,Humidity,HourlyPrecipIn,Conditions,Clouds,dailyrainin,SoftwareType,DateUTC
2013-07-19 00:18:00,69.5,69.0,30.11,SSE,160,0.0,2.0,98,0.00,,,0.01,weatherlink.com 1.10,2013-07-19 04:18:00,
2013-07-19 01:04:00,68.8,68.0,30.10,SSE,161,0.0,0.0,98,0.00,,,0.01,weatherlink.com 1.10,2013-07-19 05:04:00,
2013-07-19 01:18:00,68.6,68.0,30.10,SE,139,0.0,2.0,98,0.00,,,0.01,weatherlink.com 1.10,2013-07-19 05:18:00,
2013-07-19 01:33:00,68.4,68.0,30.10,SE,140,0.0,0.0,98,0.00,,,0.01,weatherlink.com 1.10,2013-07-19 05:33:00,
2013-07-19 01:48:00,68.1,68.0,30.10,SE,139,1.0,1.0,98,0.00,,,0.01,weatherlink.com 1.10,2013-07-19 05:48:00,
2013-07-19 02:03:00,68.0,68.0,30.09,SE,142,0.0,0.0,99,0.00,,,0.01,weatherlink.com 1.10,2013-07-19 06:03:00,
2013-07-19 02:18:00,67.8,68.0,30.09,SE,142,0.0,0.0,99,0.00,,,0.01,weatherlink.com 1.10,2013-07-19 06:18:00,
2013-07-19 03:04:00,67.3,67.0,30.07,SE,142,0.0,0.0,99,0.00,,,0.01,weatherlink.com 1.10,2013-07-19 07:04:00,
2013-07-19 03:19:00,67.1,67.0,30.08,SE,142,0.0,1.0,99,0.00,,,0.00,weatherlink.com 1.10,2013-07-19 07:19:00,
2013-07-19 03:34:00,66.9,67.0,30.08,SE,143,0.0,1.0,99,0.00,,,0.00,weatherlink.com 1.10,2013-07-19 07:34:00,
2013-07-19 03:49:00,66.7,66.0,30.08,SE,142,0.0,0.0,99,0.00,,,0.00,weatherlink.com 1.10,2013-07-19 07:49:00,
2013-07-19 04:04:00,66.6,66.0,30.08,SE,142,0.0,0.0,99,0.00,,,0.00,weatherlink.com 1.10,2013-07-19 08:04:00,
2013-07-19 04:19:00,66.5,66.0,30.08,SE,138,0.0,0.0,99,0.00,,,0.00,weatherlink.com 1.10,2013-07-19 08:19:00,
2013-07-19 04:34:00,66.4,66.0,30.07,SE,138,0.0,0.0,99,0.00,,,0.00,weatherlink.com 1.10,2013-07-19 08:34:00,
2013-07-19 04:49:00,66.2,66.0,30.07,SE,138,0.0,1.0,99,0.00,,,0.00,weatherlink.com 1.10,2013-07-19 08:49:00,
2013-07-19 05:04:00,66.2,66.0,30.07,SSE,158,0.0,1.0,99,0.00,,,0.00,weatherlink.com 1.10,2013-07-19 09:04:00,
2013-07-19 05:19:00,66.1,66.0,30.08,SE,131,1.0,1.0,99,0.00,,,0.00,weatherlink.com 1.10,2013-07-19 09:19:00,
2013-07-19 05:34:00,66.0,66.0,30.08,SE,137,0.0,1.0,99,0.00,,,0.00,weatherlink.com 1.10,2013-07-19 09:34:00,
2013-07-19 05:49:00,66.0,66.0,30.08,SE,137,0.0,1.0,99,0.00,,,0.00,weatherlink.com 1.10,2013-07-19 09:49:00,
2013-07-19 06:04:00,65.8,66.0,30.08,SE,136,0.0,0.0,99,0.00,,,0.00,weatherlink.com 1.10,2013-07-19 10:04:00,
2013-07-19 06:19:00,65.8,66.0,30.08,SE,136,0.0,1.0,100,0.00,,,0.00,weatherlink.com 1.10,2013-07-19 10:19:00,
2013-07-19 06:34:00,65.7,66.0,30.08,SE,137,0.0,1.0,100,0.00,,,0.00,weatherlink.com 1.10,2013-07-19 10:34:00,
2013-07-19 06:49:00,65.7,66.0,30.08,SE,136,0.0,1.0,100,0.00,,,0.00,weatherlink.com 1.10,2013-07-19 10:49:00,
2013-07-19 07:04:00,65.8,66.0,30.09,SSE,150,0.0,1.0,100,0.00,,,0.00,weatherlink.com 1.10,2013-07-19 11:04:00,
2013-07-19 07:19:00,66.1,66.0,30.09,SSE,149,0.0,1.0,100,0.00,,,0.00,weatherlink.com 1.10,2013-07-19 11:19:00,
2013-07-19 07:34:00,66.2,66.0,30.09,SSE,165,0.0,1.0,100,0.00,,,0.00,weatherlink.com 1.10,2013-07-19 11:34:00,
2013-07-19 07:49:00,66.8,67.0,30.09,SSE,167,0.0,1.0,100,0.00,,,0.00,weatherlink.com 1.10,2013-07-19 11:49:00,
2013-07-19 08:04:00,67.2,67.0,30.10,SSE,149,0.0,2.0,100,0.00,,,0.00,weatherlink.com 1.10,2013-07-19 12:04:00,
2013-07-19 08:19:00,67.6,68.0,30.10,South,174,1.0,2.0,100,0.00,,,0.00,weatherlink.com 1.10,2013-07-19 12:19:00,
2013-07-19 08:34:00,67.9,68.0,30.10,SSE,156,0.0,3.0,100,0.00,,,0.00,weatherlink.com 1.10,2013-07-19 12:34:00,
2013-07-19 08:49:00,68.7,69.0,30.10,WSW,254,0.0,2.0,100,0.00,,,0.00,weatherlink.com 1.10,2013-07-19 12:49:00,
2013-07-19 09:04:00,69.7,70.0,30.10,SSE,160,2.0,3.0,100,0.00,,,0.00,weatherlink.com 1.10,2013-07-19 13:04:00,
2013-07-19 09:19:00,70.3,70.0,30.10,WSW,240,1.0,2.0,100,0.00,,,0.00,weatherlink.com 1.10,2013-07-19 13:19:00,
2013-07-19 09:34:00,71.4,71.0,30.10,SE,143,2.0,4.0,99,0.00,,,0.00,weatherlink.com 1.10,2013-07-19 13:34:00,
2013-07-19 09:49:00,73.5,72.0,30.10,SSE,158,0.0,4.0,96,0.00,,,0.00,weatherlink.com 1.10,2013-07-19 13:49:00,
2013-07-19 10:04:00,75.8,73.0,30.10,SSE,165,2.0,4.0,91,0.00,,,0.00,weatherlink.com 1.10,2013-07-19 14:04:00,
2013-07-19 10:19:00,77.9,74.0,30.10,SSE,155,0.0,4.0,88,0.00,,,0.00,weatherlink.com 1.10,2013-07-19 14:19:00,
2013-07-19 10:34:00,79.7,73.0,30.10,South,184,0.0,5.0,81,0.00,,,0.00,weatherlink.com 1.10,2013-07-19 14:34:00,
2013-07-19 11:05:00,81.5,75.0,30.09,SSE,159,4.0,10.0,81,0.00,,,0.00,weatherlink.com 1.10,2013-07-19 15:05:00,
2013-07-19 11:20:00,82.4,74.0,30.09,NE,47,1.0,9.0,76,0.00,,,0.00,weatherlink.com 1.10,2013-07-19 15:20:00,
2013-07-19 11:35:00,83.0,75.0,30.09,ESE,122,1.0,9.0,77,0.00,,,0.00,weatherlink.com 1.10,2013-07-19 15:35:00,
2013-07-19 11:50:00,84.0,76.0,30.08,SSE,152,4.0,6.0,77,0.00,,,0.00,weatherlink.com 1.10,2013-07-19 15:50:00,
2013-07-19 12:05:00,84.3,76.0,30.08,West,259,1.0,6.0,77,0.00,,,0.00,weatherlink.com 1.10,2013-07-19 16:05:00,
2013-07-19 12:20:00,85.2,76.0,30.07,SSE,150,0.0,8.0,73,0.00,,,0.00,weatherlink.com 1.10,2013-07-19 16:20:00,
2013-07-19 12:35:00,85.7,76.0,30.07,NW,323,2.0,6.0,73,0.00,,,0.00,weatherlink.com 1.10,2013-07-19 16:35:00,
2013-07-19 12:50:00,86.4,75.0,30.06,WNW,287,2.0,8.0,69,0.00,,,0.00,weatherlink.com 1.10,2013-07-19 16:50:00,
2013-07-19 13:05:00,86.6,74.0,30.05,ENE,77,2.0,8.0,66,0.00,,,0.00,weatherlink.com 1.10,2013-07-19 17:05:00,
2013-07-19 13:20:00,86.1,74.0,30.05,ENE,61,4.0,5.0,68,0.00,,,0.00,weatherlink.com 1.10,2013-07-19 17:20:00,
2013-07-19 13:35:00,85.9,73.0,30.04,SSE,156,1.0,7.0,66,0.00,,,0.00,weatherlink.com 1.10,2013-07-19 17:35:00,
2013-07-19 13:50:00,85.1,74.0,30.04,South,184,2.0,7.0,69,0.00,,,0.00,weatherlink.com 1.10,2013-07-19 17:50:00,
2013-07-19 14:05:00,82.2,74.0,30.04,SSW,202,4.0,11.0,75,0.00,,,0.00,weatherlink.com 1.10,2013-07-19 18:05:00,
2013-07-19 14:20:00,76.6,71.0,30.04,SSE,152,0.0,13.0,83,0.03,,,0.03,weatherlink.com 1.10,2013-07-19 18:20:00,
2013-07-19 14:35:00,73.1,69.0,30.04,SSE,153,0.0,4.0,88,0.11,,,0.11,weatherlink.com 1.10,2013-07-19 18:35:00,
2013-07-19 14:50:00,72.6,71.0,30.04,ESE,115,1.0,3.0,94,0.14,,,0.14,weatherlink.com 1.10,2013-07-19 18:50:00,
2013-07-19 15:05:00,71.9,70.0,30.03,SSW,197,3.0,5.0,94,0.19,,,0.19,weatherlink.com 1.10,2013-07-19 19:05:00,
2013-07-19 15:20:00,72.5,71.0,30.02,North,350,2.0,3.0,95,0.15,,,0.19,weatherlink.com 1.10,2013-07-19 19:20:00,
2013-07-19 15:35:00,73.9,73.0,30.01,ENE,72,1.0,1.0,97,0.08,,,0.19,weatherlink.com 1.10,2013-07-19 19:35:00,
2013-07-19 15:51:00,76.1,73.0,30.01,SE,143,1.0,2.0,90,0.05,,,0.19,weatherlink.com 1.10,2013-07-19 19:51:00,
2013-07-19 16:05:00,78.2,74.0,30.01,South,170,2.0,2.0,86,0.00,,,0.19,weatherlink.com 1.10,2013-07-19 20:05:00,
2013-07-19 16:21:00,78.3,75.0,30.01,SSW,211,0.0,2.0,89,0.00,,,0.19,weatherlink.com 1.10,2013-07-19 20:21:00,
2013-07-19 16:35:00,77.5,74.0,30.01,NNW,336,1.0,3.0,89,0.00,,,0.19,weatherlink.com 1.10,2013-07-19 20:35:00,
2013-07-19 16:51:00,77.3,75.0,30.01,NNE,20,0.0,1.0,91,0.00,,,0.19,weatherlink.com 1.10,2013-07-19 20:51:00,
2013-07-19 17:05:00,76.1,72.0,30.01,SSE,149,1.0,7.0,87,0.00,,,0.19,weatherlink.com 1.10,2013-07-19 21:05:00,
2013-07-19 17:21:00,73.7,70.0,30.00,SSE,153,0.0,2.0,89,0.07,,,0.26,weatherlink.com 1.10,2013-07-19 21:21:00,
2013-07-19 17:35:00,72.3,70.0,30.00,SSE,153,0.0,1.0,93,0.09,,,0.28,weatherlink.com 1.10,2013-07-19 21:35:00,
2013-07-19 17:51:00,71.3,70.0,30.00,SSE,166,2.0,3.0,95,0.09,,,0.28,weatherlink.com 1.10,2013-07-19 21:51:00,
2013-07-19 18:06:00,70.9,70.0,30.00,SE,143,2.0,3.0,96,0.09,,,0.28,weatherlink.com 1.10,2013-07-19 22:06:00,
2013-07-19 18:22:00,70.6,70.0,30.00,SE,134,0.0,2.0,97,0.01,,,0.28,weatherlink.com 1.10,2013-07-19 22:22:00,
2013-07-19 18:36:00,70.7,70.0,30.00,SE,134,1.0,1.0,97,0.00,,,0.28,weatherlink.com 1.10,2013-07-19 22:36:00,
2013-07-19 18:52:00,70.5,70.0,29.99,SE,143,1.0,2.0,97,0.00,,,0.28,weatherlink.com 1.10,2013-07-19 22:52:00,
2013-07-19 19:06:00,70.4,70.0,29.99,SSE,150,1.0,2.0,98,0.00,,,0.28,weatherlink.com 1.10,2013-07-19 23:06:00,
2013-07-19 19:21:00,70.6,70.0,29.99,South,170,0.0,1.0,98,0.00,,,0.28,weatherlink.com 1.10,2013-07-19 23:21:00,
2013-07-19 19:51:00,70.5,70.0,30.00,North,4,0.0,1.0,98,0.00,,,0.28,weatherlink.com 1.10,2013-07-19 23:51:00,
2013-07-19 20:06:00,70.5,70.0,30.00,North,4,0.0,0.0,98,0.00,,,0.28,weatherlink.com 1.10,2013-07-20 00:06:00,
2013-07-19 20:21:00,70.3,70.0,30.00,NNE,23,0.0,0.0,98,0.00,,,0.28,weatherlink.com 1.10,2013-07-20 00:21:00,
2013-07-19 20:36:00,70.1,70.0,30.01,SE,139,0.0,1.0,99,0.00,,,0.28,weatherlink.com 1.10,2013-07-20 00:36:00,
2013-07-19 20:51:00,69.8,70.0,30.02,SE,140,0.0,1.0,99,0.00,,,0.28,weatherlink.com 1.10,2013-07-20 00:51:00,
2013-07-19 21:06:00,69.7,69.0,30.02,NNE,30,2.0,2.0,99,0.00,,,0.28,weatherlink.com 1.10,2013-07-20 01:06:00,
2013-07-19 21:21:00,69.7,69.0,30.03,SE,141,0.0,2.0,99,0.00,,,0.28,weatherlink.com 1.10,2013-07-20 01:21:00,
2013-07-19 21:51:00,69.4,69.0,30.03,SE,141,1.0,1.0,99,0.00,,,0.28,weatherlink.com 1.10,2013-07-20 01:51:00,
2013-07-19 22:06:00,69.2,69.0,30.04,SE,141,0.0,1.0,99,0.00,,,0.28,weatherlink.com 1.10,2013-07-20 02:06:00,
2013-07-19 22:21:00,69.3,69.0,30.04,SE,141,0.0,1.0,99,0.00,,,0.28,weatherlink.com 1.10,2013-07-20 02:21:00,
2013-07-19 22:36:00,69.0,69.0,30.04,SSE,156,1.0,1.0,99,0.00,,,0.28,weatherlink.com 1.10,2013-07-20 02:36:00,
2013-07-19 22:51:00,69.0,69.0,30.04,SSE,158,0.0,1.0,99,0.00,,,0.28,weatherlink.com 1.10,2013-07-20 02:51:00,
2013-07-19 23:06:00,69.0,69.0,30.03,SSE,158,0.0,1.0,99,0.00,,,0.28,weatherlink.com 1.10,2013-07-20 03:06:00,
2013-07-19 23:36:00,68.5,68.0,30.02,SSE,154,1.0,2.0,99,0.00,,,0.28,weatherlink.com 1.10,2013-07-20 03:36:00,
2013-07-19 23:51:00,68.4,68.0,30.02,SSE,155,0.0,2.0,99,0.00,,,0.28,weatherlink.com 1.10,2013-07-20 03:51:00,